sensor_id;sensor_type;location;lat;lon;timestamp;temperature;humidity
20610;DHT22;10463;52.378;9.688;2023-06-26T00:00:40;34.30;26.80
20610;DHT22;10463;52.378;9.688;2023-06-26T00:03:25;34.30;26.80
20610;DHT22;10463;52.378;9.688;2023-06-26T00:06:09;34.30;26.80
20610;DHT22;10463;52.378;9.688;2023-06-26T00:08:54;34.30;26.80
20610;DHT22;10463;52.378;9.688;2023-06-26T00:11:39;34.30;26.80
20610;DHT22;10463;52.378;9.688;2023-06-26T00:14:24;34.30;26.80
20610;DHT22;10463;52.378;9.688;2023-06-26T00:17:11;34.30;26.80
20610;DHT22;10463;52.378;9.688;2023-06-26T00:19:56;34.30;26.80
20610;DHT22;10463;52.378;9.688;2023-06-26T00:22:41;34.20;26.70
20610;DHT22;10463;52.378;9.688;2023-06-26T00:25:25;34.30;26.80
20610;DHT22;10463;52.378;9.688;2023-06-26T00:28:10;34.30;26.80
20610;DHT22;10463;52.378;9.688;2023-06-26T00:30:56;34.30;26.80
20610;DHT22;10463;52.378;9.688;2023-06-26T00:33:43;34.20;26.70
20610;DHT22;10463;52.378;9.688;2023-06-26T00:36:27;34.20;26.70
20610;DHT22;10463;52.378;9.688;2023-06-26T00:39:13;34.20;26.70
20610;DHT22;10463;52.378;9.688;2023-06-26T00:41:59;34.20;26.70
20610;DHT22;10463;52.378;9.688;2023-06-26T00:44:44;34.20;26.70
20610;DHT22;10463;52.378;9.688;2023-06-26T00:47:29;34.20;26.70
20610;DHT22;10463;52.378;9.688;2023-06-26T00:50:15;34.20;26.70
20610;DHT22;10463;52.378;9.688;2023-06-26T00:53:02;34.20;26.70
20610;DHT22;10463;52.378;9.688;2023-06-26T00:55:47;34.20;26.70
20610;DHT22;10463;52.378;9.688;2023-06-26T00:58:32;34.10;27.20
20610;DHT22;10463;52.378;9.688;2023-06-26T01:01:16;34.20;27.20
20610;DHT22;10463;52.378;9.688;2023-06-26T01:04:02;34.10;26.60
20610;DHT22;10463;52.378;9.688;2023-06-26T01:06:49;34.10;26.60
20610;DHT22;10463;52.378;9.688;2023-06-26T01:09:34;34.10;26.60
20610;DHT22;10463;52.378;9.688;2023-06-26T01:12:19;34.10;26.60
20610;DHT22;10463;52.378;9.688;2023-06-26T01:15:08;34.20;26.60
20610;DHT22;10463;52.378;9.688;2023-06-26T01:17:53;34.10;26.60
20610;DHT22;10463;52.378;9.688;2023-06-26T01:20:41;34.10;26.60
20610;DHT22;10463;52.378;9.688;2023-06-26T01:23:35;34.10;26.60
20610;DHT22;10463;52.378;9.688;2023-06-26T01:26:23;34.10;26.60
20610;DHT22;10463;52.378;9.688;2023-06-26T01:29:10;34.10;26.60
20610;DHT22;10463;52.378;9.688;2023-06-26T01:31:58;34.10;26.50
20610;DHT22;10463;52.378;9.688;2023-06-26T01:34:44;34.10;26.60
20610;DHT22;10463;52.378;9.688;2023-06-26T01:37:30;34.10;26.60
20610;DHT22;10463;52.378;9.688;2023-06-26T01:40:14;34.10;26.50
20610;DHT22;10463;52.378;9.688;2023-06-26T01:43:01;34.10;26.50
20610;DHT22;10463;52.378;9.688;2023-06-26T01:45:48;34.10;26.60
20610;DHT22;10463;52.378;9.688;2023-06-26T01:48:46;34.10;26.50
20610;DHT22;10463;52.378;9.688;2023-06-26T01:51:38;34.00;26.50
20610;DHT22;10463;52.378;9.688;2023-06-26T01:54:25;34.10;26.50
20610;DHT22;10463;52.378;9.688;2023-06-26T01:57:17;34.10;26.50
20610;DHT22;10463;52.378;9.688;2023-06-26T02:00:06;34.00;26.50
20610;DHT22;10463;52.378;9.688;2023-06-26T02:03:00;34.00;26.50
20610;DHT22;10463;52.378;9.688;2023-06-26T02:05:46;34.00;26.50
20610;DHT22;10463;52.378;9.688;2023-06-26T02:08:30;34.00;26.50
20610;DHT22;10463;52.378;9.688;2023-06-26T02:11:15;34.00;26.50
20610;DHT22;10463;52.378;9.688;2023-06-26T02:13:59;34.00;26.50
20610;DHT22;10463;52.378;9.688;2023-06-26T02:16:45;34.00;26.50
20610;DHT22;10463;52.378;9.688;2023-06-26T02:19:30;34.00;26.50
20610;DHT22;10463;52.378;9.688;2023-06-26T02:22:17;33.90;26.40
20610;DHT22;10463;52.378;9.688;2023-06-26T02:25:02;33.90;26.40
20610;DHT22;10463;52.378;9.688;2023-06-26T02:27:47;34.00;26.50
20610;DHT22;10463;52.378;9.688;2023-06-26T02:30:32;34.00;26.40
20610;DHT22;10463;52.378;9.688;2023-06-26T02:33:19;34.00;26.40
20610;DHT22;10463;52.378;9.688;2023-06-26T02:36:07;33.90;26.40
20610;DHT22;10463;52.378;9.688;2023-06-26T02:38:51;33.90;26.40
20610;DHT22;10463;52.378;9.688;2023-06-26T02:41:37;33.90;26.40
20610;DHT22;10463;52.378;9.688;2023-06-26T02:44:22;33.90;26.40
20610;DHT22;10463;52.378;9.688;2023-06-26T02:47:07;33.90;26.90
20610;DHT22;10463;52.378;9.688;2023-06-26T02:49:57;33.90;26.40
20610;DHT22;10463;52.378;9.688;2023-06-26T02:52:42;33.90;26.40
20610;DHT22;10463;52.378;9.688;2023-06-26T02:55:27;33.90;26.30
20610;DHT22;10463;52.378;9.688;2023-06-26T02:58:12;33.90;26.30
20610;DHT22;10463;52.378;9.688;2023-06-26T03:00:58;33.90;26.40
20610;DHT22;10463;52.378;9.688;2023-06-26T03:03:43;33.90;26.30
20610;DHT22;10463;52.378;9.688;2023-06-26T03:06:34;33.80;26.30
20610;DHT22;10463;52.378;9.688;2023-06-26T03:09:18;33.90;26.30
20610;DHT22;10463;52.378;9.688;2023-06-26T03:12:04;33.90;26.30
20610;DHT22;10463;52.378;9.688;2023-06-26T03:14:51;33.80;26.30
20610;DHT22;10463;52.378;9.688;2023-06-26T03:17:36;33.80;26.30
20610;DHT22;10463;52.378;9.688;2023-06-26T03:20:24;33.80;26.30
20610;DHT22;10463;52.378;9.688;2023-06-26T03:23:18;33.80;26.30
20610;DHT22;10463;52.378;9.688;2023-06-26T03:26:02;33.80;26.30
20610;DHT22;10463;52.378;9.688;2023-06-26T03:28:52;33.80;26.30
20610;DHT22;10463;52.378;9.688;2023-06-26T03:31:38;33.80;26.30
20610;DHT22;10463;52.378;9.688;2023-06-26T03:34:23;33.80;26.30
20610;DHT22;10463;52.378;9.688;2023-06-26T03:37:08;33.80;26.30
20610;DHT22;10463;52.378;9.688;2023-06-26T03:39:54;33.80;26.30
20610;DHT22;10463;52.378;9.688;2023-06-26T03:42:39;33.80;26.30
20610;DHT22;10463;52.378;9.688;2023-06-26T03:45:25;33.80;26.30
20610;DHT22;10463;52.378;9.688;2023-06-26T03:48:10;33.70;26.20
20610;DHT22;10463;52.378;9.688;2023-06-26T03:50:54;33.80;26.30
20610;DHT22;10463;52.378;9.688;2023-06-26T03:53:40;33.70;26.20
20610;DHT22;10463;52.378;9.688;2023-06-26T03:56:26;33.70;26.20
20610;DHT22;10463;52.378;9.688;2023-06-26T03:59:10;33.70;26.20
20610;DHT22;10463;52.378;9.688;2023-06-26T04:01:55;33.70;26.20
20610;DHT22;10463;52.378;9.688;2023-06-26T04:04:41;33.70;26.20
20610;DHT22;10463;52.378;9.688;2023-06-26T04:07:26;33.70;26.20
20610;DHT22;10463;52.378;9.688;2023-06-26T04:10:11;33.70;26.70
20610;DHT22;10463;52.378;9.688;2023-06-26T04:12:57;33.70;26.20
20610;DHT22;10463;52.378;9.688;2023-06-26T04:15:42;33.70;26.20
20610;DHT22;10463;52.378;9.688;2023-06-26T04:18:27;33.70;26.20
20610;DHT22;10463;52.378;9.688;2023-06-26T04:21:13;33.60;26.20
20610;DHT22;10463;52.378;9.688;2023-06-26T04:23:58;33.70;26.20
20610;DHT22;10463;52.378;9.688;2023-06-26T04:26:42;33.70;26.20
20610;DHT22;10463;52.378;9.688;2023-06-26T04:29:28;33.60;26.20
20610;DHT22;10463;52.378;9.688;2023-06-26T04:32:13;33.70;26.20
20610;DHT22;10463;52.378;9.688;2023-06-26T04:34:57;33.60;26.70
20610;DHT22;10463;52.378;9.688;2023-06-26T04:37:42;33.60;26.20
20610;DHT22;10463;52.378;9.688;2023-06-26T04:40:27;33.70;26.20
20610;DHT22;10463;52.378;9.688;2023-06-26T04:43:11;33.60;26.20
20610;DHT22;10463;52.378;9.688;2023-06-26T04:45:57;33.70;26.20
20610;DHT22;10463;52.378;9.688;2023-06-26T04:48:42;33.60;26.20
20610;DHT22;10463;52.378;9.688;2023-06-26T04:51:29;33.60;26.70
20610;DHT22;10463;52.378;9.688;2023-06-26T04:54:13;33.60;26.20
20610;DHT22;10463;52.378;9.688;2023-06-26T04:56:58;33.60;26.10
20610;DHT22;10463;52.378;9.688;2023-06-26T04:59:44;33.60;26.20
20610;DHT22;10463;52.378;9.688;2023-06-26T05:02:30;33.60;26.70
20610;DHT22;10463;52.378;9.688;2023-06-26T05:05:15;33.60;26.20
20610;DHT22;10463;52.378;9.688;2023-06-26T05:08:13;33.60;26.20
20610;DHT22;10463;52.378;9.688;2023-06-26T05:10:59;33.60;26.20
20610;DHT22;10463;52.378;9.688;2023-06-26T05:13:43;33.60;26.20
20610;DHT22;10463;52.378;9.688;2023-06-26T05:16:28;33.60;26.20
20610;DHT22;10463;52.378;9.688;2023-06-26T05:19:14;33.60;26.20
20610;DHT22;10463;52.378;9.688;2023-06-26T05:22:01;33.60;26.20
20610;DHT22;10463;52.378;9.688;2023-06-26T05:24:50;33.60;26.20
20610;DHT22;10463;52.378;9.688;2023-06-26T05:27:37;33.60;26.20
20610;DHT22;10463;52.378;9.688;2023-06-26T05:30:24;33.60;26.20
20610;DHT22;10463;52.378;9.688;2023-06-26T05:33:11;33.60;26.20
20610;DHT22;10463;52.378;9.688;2023-06-26T05:35:59;33.60;26.20
20610;DHT22;10463;52.378;9.688;2023-06-26T05:38:45;33.60;26.20
20610;DHT22;10463;52.378;9.688;2023-06-26T05:41:31;33.60;26.20
20610;DHT22;10463;52.378;9.688;2023-06-26T05:44:16;33.60;26.20
20610;DHT22;10463;52.378;9.688;2023-06-26T05:47:00;33.60;26.20
20610;DHT22;10463;52.378;9.688;2023-06-26T05:49:45;33.60;26.20
20610;DHT22;10463;52.378;9.688;2023-06-26T05:52:33;33.60;26.20
20610;DHT22;10463;52.378;9.688;2023-06-26T05:55:18;33.60;26.20
20610;DHT22;10463;52.378;9.688;2023-06-26T05:58:04;33.50;26.10
20610;DHT22;10463;52.378;9.688;2023-06-26T06:00:49;33.60;26.20
20610;DHT22;10463;52.378;9.688;2023-06-26T06:03:34;33.60;26.20
20610;DHT22;10463;52.378;9.688;2023-06-26T06:06:19;33.60;26.20
20610;DHT22;10463;52.378;9.688;2023-06-26T06:09:05;33.50;26.20
20610;DHT22;10463;52.378;9.688;2023-06-26T06:11:50;33.50;26.20
20610;DHT22;10463;52.378;9.688;2023-06-26T06:14:35;33.50;26.20
20610;DHT22;10463;52.378;9.688;2023-06-26T06:17:19;33.50;26.20
20610;DHT22;10463;52.378;9.688;2023-06-26T06:20:05;33.50;26.20
20610;DHT22;10463;52.378;9.688;2023-06-26T06:22:51;33.60;26.20
20610;DHT22;10463;52.378;9.688;2023-06-26T06:25:37;33.50;26.20
20610;DHT22;10463;52.378;9.688;2023-06-26T06:28:21;33.50;26.20
20610;DHT22;10463;52.378;9.688;2023-06-26T06:31:06;33.50;26.20
20610;DHT22;10463;52.378;9.688;2023-06-26T06:33:51;33.50;26.20
20610;DHT22;10463;52.378;9.688;2023-06-26T06:36:36;33.50;26.20
20610;DHT22;10463;52.378;9.688;2023-06-26T06:39:21;33.50;26.20
20610;DHT22;10463;52.378;9.688;2023-06-26T06:42:07;33.50;26.20
20610;DHT22;10463;52.378;9.688;2023-06-26T06:44:52;33.50;26.20
20610;DHT22;10463;52.378;9.688;2023-06-26T06:47:37;33.50;26.20
20610;DHT22;10463;52.378;9.688;2023-06-26T06:50:21;33.50;26.20
20610;DHT22;10463;52.378;9.688;2023-06-26T06:53:07;33.50;26.20
20610;DHT22;10463;52.378;9.688;2023-06-26T06:55:52;33.50;26.30
20610;DHT22;10463;52.378;9.688;2023-06-26T06:58:38;33.50;26.30
20610;DHT22;10463;52.378;9.688;2023-06-26T07:01:26;33.50;26.30
20610;DHT22;10463;52.378;9.688;2023-06-26T07:04:11;33.50;26.20
20610;DHT22;10463;52.378;9.688;2023-06-26T07:06:55;33.50;26.20
20610;DHT22;10463;52.378;9.688;2023-06-26T07:09:40;33.50;26.30
20610;DHT22;10463;52.378;9.688;2023-06-26T07:12:24;33.50;26.30
20610;DHT22;10463;52.378;9.688;2023-06-26T07:15:11;33.50;26.30
20610;DHT22;10463;52.378;9.688;2023-06-26T07:17:55;33.50;26.30
20610;DHT22;10463;52.378;9.688;2023-06-26T07:20:40;33.50;26.30
20610;DHT22;10463;52.378;9.688;2023-06-26T07:23:26;33.50;26.30
20610;DHT22;10463;52.378;9.688;2023-06-26T07:26:13;33.50;26.30
20610;DHT22;10463;52.378;9.688;2023-06-26T07:28:58;33.50;26.30
20610;DHT22;10463;52.378;9.688;2023-06-26T07:31:44;33.50;26.30
20610;DHT22;10463;52.378;9.688;2023-06-26T07:34:29;33.50;26.30
20610;DHT22;10463;52.378;9.688;2023-06-26T07:37:14;33.50;26.30
20610;DHT22;10463;52.378;9.688;2023-06-26T07:39:59;33.50;26.30
20610;DHT22;10463;52.378;9.688;2023-06-26T07:42:43;33.50;26.30
20610;DHT22;10463;52.378;9.688;2023-06-26T07:45:28;33.50;26.30
20610;DHT22;10463;52.378;9.688;2023-06-26T07:48:14;33.50;26.30
20610;DHT22;10463;52.378;9.688;2023-06-26T07:50:58;33.50;26.30
20610;DHT22;10463;52.378;9.688;2023-06-26T07:53:43;33.50;26.30
20610;DHT22;10463;52.378;9.688;2023-06-26T07:56:28;33.50;26.40
20610;DHT22;10463;52.378;9.688;2023-06-26T07:59:13;33.50;26.30
20610;DHT22;10463;52.378;9.688;2023-06-26T08:01:59;33.50;26.30
20610;DHT22;10463;52.378;9.688;2023-06-26T08:04:45;33.50;26.30
20610;DHT22;10463;52.378;9.688;2023-06-26T08:07:30;33.50;26.30
20610;DHT22;10463;52.378;9.688;2023-06-26T08:10:15;33.50;26.40
20610;DHT22;10463;52.378;9.688;2023-06-26T08:12:59;33.50;26.40
20610;DHT22;10463;52.378;9.688;2023-06-26T08:15:44;33.50;26.40
20610;DHT22;10463;52.378;9.688;2023-06-26T08:18:29;33.50;26.40
20610;DHT22;10463;52.378;9.688;2023-06-26T08:21:15;33.50;26.40
20610;DHT22;10463;52.378;9.688;2023-06-26T08:24:00;33.60;26.50
20610;DHT22;10463;52.378;9.688;2023-06-26T08:26:45;33.60;26.50
20610;DHT22;10463;52.378;9.688;2023-06-26T08:29:31;33.60;26.50
20610;DHT22;10463;52.378;9.688;2023-06-26T08:32:15;33.50;26.40
20610;DHT22;10463;52.378;9.688;2023-06-26T08:35:00;33.60;26.50
20610;DHT22;10463;52.378;9.688;2023-06-26T08:37:46;33.60;26.50
20610;DHT22;10463;52.378;9.688;2023-06-26T08:40:32;33.60;26.50
20610;DHT22;10463;52.378;9.688;2023-06-26T08:43:16;33.50;26.50
20610;DHT22;10463;52.378;9.688;2023-06-26T08:46:02;33.60;26.50
20610;DHT22;10463;52.378;9.688;2023-06-26T08:48:51;33.60;26.50
20610;DHT22;10463;52.378;9.688;2023-06-26T08:51:40;33.60;26.60
20610;DHT22;10463;52.378;9.688;2023-06-26T08:54:34;33.60;26.60
20610;DHT22;10463;52.378;9.688;2023-06-26T08:57:23;33.60;26.60
20610;DHT22;10463;52.378;9.688;2023-06-26T09:00:10;33.60;26.60
20610;DHT22;10463;52.378;9.688;2023-06-26T09:02:55;33.60;27.20
20610;DHT22;10463;52.378;9.688;2023-06-26T09:05:41;33.60;26.60
20610;DHT22;10463;52.378;9.688;2023-06-26T09:08:25;33.60;26.70
20610;DHT22;10463;52.378;9.688;2023-06-26T09:11:12;33.60;26.70
20610;DHT22;10463;52.378;9.688;2023-06-26T09:13:57;33.60;26.70
20610;DHT22;10463;52.378;9.688;2023-06-26T09:16:42;33.60;26.70
20610;DHT22;10463;52.378;9.688;2023-06-26T09:19:26;33.60;26.80
20610;DHT22;10463;52.378;9.688;2023-06-26T09:22:13;33.60;26.70
20610;DHT22;10463;52.378;9.688;2023-06-26T09:24:57;33.60;26.80
20610;DHT22;10463;52.378;9.688;2023-06-26T09:27:45;33.60;26.80
20610;DHT22;10463;52.378;9.688;2023-06-26T09:30:32;33.60;26.80
20610;DHT22;10463;52.378;9.688;2023-06-26T09:33:19;33.60;26.80
20610;DHT22;10463;52.378;9.688;2023-06-26T09:36:10;33.60;26.80
20610;DHT22;10463;52.378;9.688;2023-06-26T09:39:04;33.60;26.80
20610;DHT22;10463;52.378;9.688;2023-06-26T09:41:50;33.60;26.80
20610;DHT22;10463;52.378;9.688;2023-06-26T09:44:36;33.60;26.80
20610;DHT22;10463;52.378;9.688;2023-06-26T09:47:23;33.70;26.90
20610;DHT22;10463;52.378;9.688;2023-06-26T09:50:21;33.70;27.40
20610;DHT22;10463;52.378;9.688;2023-06-26T09:53:11;33.70;26.90
20610;DHT22;10463;52.378;9.688;2023-06-26T09:55:57;33.70;26.90
20610;DHT22;10463;52.378;9.688;2023-06-26T09:58:42;33.70;26.90
20610;DHT22;10463;52.378;9.688;2023-06-26T10:01:31;33.70;26.90
20610;DHT22;10463;52.378;9.688;2023-06-26T10:04:16;33.70;26.90
20610;DHT22;10463;52.378;9.688;2023-06-26T10:07:04;33.70;26.90
20610;DHT22;10463;52.378;9.688;2023-06-26T10:09:51;33.80;26.90
20610;DHT22;10463;52.378;9.688;2023-06-26T10:12:38;33.70;26.90
20610;DHT22;10463;52.378;9.688;2023-06-26T10:15:23;33.70;26.90
20610;DHT22;10463;52.378;9.688;2023-06-26T10:18:11;33.70;26.90
20610;DHT22;10463;52.378;9.688;2023-06-26T10:20:57;33.80;26.90
20610;DHT22;10463;52.378;9.688;2023-06-26T10:23:44;33.80;27.50
20610;DHT22;10463;52.378;9.688;2023-06-26T10:26:30;33.80;26.90
20610;DHT22;10463;52.378;9.688;2023-06-26T10:29:16;33.80;26.90
20610;DHT22;10463;52.378;9.688;2023-06-26T10:32:04;33.80;26.90
20610;DHT22;10463;52.378;9.688;2023-06-26T10:34:51;33.80;26.90
20610;DHT22;10463;52.378;9.688;2023-06-26T10:37:43;33.80;26.90
20610;DHT22;10463;52.378;9.688;2023-06-26T10:40:40;33.80;26.90
20610;DHT22;10463;52.378;9.688;2023-06-26T10:43:30;33.80;26.90
20610;DHT22;10463;52.378;9.688;2023-06-26T10:46:17;33.80;26.90
20610;DHT22;10463;52.378;9.688;2023-06-26T10:49:02;33.80;26.90
20610;DHT22;10463;52.378;9.688;2023-06-26T10:51:50;33.90;27.00
20610;DHT22;10463;52.378;9.688;2023-06-26T10:54:35;33.80;27.00
20610;DHT22;10463;52.378;9.688;2023-06-26T10:57:25;33.90;27.00
20610;DHT22;10463;52.378;9.688;2023-06-26T11:00:11;33.80;26.90
20610;DHT22;10463;52.378;9.688;2023-06-26T11:02:58;33.90;27.00
20610;DHT22;10463;52.378;9.688;2023-06-26T11:05:45;33.80;26.90
20610;DHT22;10463;52.378;9.688;2023-06-26T11:08:53;33.90;27.00
20610;DHT22;10463;52.378;9.688;2023-06-26T11:11:58;33.90;27.00
20610;DHT22;10463;52.378;9.688;2023-06-26T11:14:45;33.90;27.00
20610;DHT22;10463;52.378;9.688;2023-06-26T11:17:31;33.90;27.00
20610;DHT22;10463;52.378;9.688;2023-06-26T11:20:16;33.90;27.00
20610;DHT22;10463;52.378;9.688;2023-06-26T11:23:04;33.90;27.00
20610;DHT22;10463;52.378;9.688;2023-06-26T11:25:52;33.90;27.00
20610;DHT22;10463;52.378;9.688;2023-06-26T11:28:36;33.90;27.00
20610;DHT22;10463;52.378;9.688;2023-06-26T11:31:26;33.90;27.00
20610;DHT22;10463;52.378;9.688;2023-06-26T11:34:13;33.90;27.00
20610;DHT22;10463;52.378;9.688;2023-06-26T11:36:58;33.90;27.00
20610;DHT22;10463;52.378;9.688;2023-06-26T11:39:45;33.90;27.00
20610;DHT22;10463;52.378;9.688;2023-06-26T11:42:33;33.90;27.00
20610;DHT22;10463;52.378;9.688;2023-06-26T11:45:19;33.90;27.00
20610;DHT22;10463;52.378;9.688;2023-06-26T11:48:04;33.90;27.00
20610;DHT22;10463;52.378;9.688;2023-06-26T11:50:50;33.90;27.00
20610;DHT22;10463;52.378;9.688;2023-06-26T11:53:40;34.00;27.00
20610;DHT22;10463;52.378;9.688;2023-06-26T11:56:26;33.90;27.00
20610;DHT22;10463;52.378;9.688;2023-06-26T11:59:13;34.00;27.00
20610;DHT22;10463;52.378;9.688;2023-06-26T12:01:57;34.00;27.00
20610;DHT22;10463;52.378;9.688;2023-06-26T12:04:43;34.00;27.60
20610;DHT22;10463;52.378;9.688;2023-06-26T12:07:28;34.00;27.10
20610;DHT22;10463;52.378;9.688;2023-06-26T12:10:15;34.00;27.00
20610;DHT22;10463;52.378;9.688;2023-06-26T12:13:00;34.00;27.10
20610;DHT22;10463;52.378;9.688;2023-06-26T12:15:47;34.00;27.00
20610;DHT22;10463;52.378;9.688;2023-06-26T12:18:34;34.00;27.00
20610;DHT22;10463;52.378;9.688;2023-06-26T12:21:34;34.00;27.00
20610;DHT22;10463;52.378;9.688;2023-06-26T12:24:28;34.00;27.00
20610;DHT22;10463;52.378;9.688;2023-06-26T12:27:15;34.10;27.10
20610;DHT22;10463;52.378;9.688;2023-06-26T12:30:03;34.00;27.00
20610;DHT22;10463;52.378;9.688;2023-06-26T12:32:50;34.10;27.10
20610;DHT22;10463;52.378;9.688;2023-06-26T12:35:34;34.10;27.10
20610;DHT22;10463;52.378;9.688;2023-06-26T12:38:19;34.10;27.10
20610;DHT22;10463;52.378;9.688;2023-06-26T12:41:05;34.10;27.10
20610;DHT22;10463;52.378;9.688;2023-06-26T12:43:55;34.10;27.10
20610;DHT22;10463;52.378;9.688;2023-06-26T12:46:40;34.10;27.10
20610;DHT22;10463;52.378;9.688;2023-06-26T12:49:34;34.10;27.10
20610;DHT22;10463;52.378;9.688;2023-06-26T12:52:20;34.10;27.60
20610;DHT22;10463;52.378;9.688;2023-06-26T12:55:06;34.10;27.10
20610;DHT22;10463;52.378;9.688;2023-06-26T12:57:51;34.10;27.10
20610;DHT22;10463;52.378;9.688;2023-06-26T13:00:35;34.10;27.10
20610;DHT22;10463;52.378;9.688;2023-06-26T13:03:20;34.10;27.10
20610;DHT22;10463;52.378;9.688;2023-06-26T13:06:06;34.10;27.10
20610;DHT22;10463;52.378;9.688;2023-06-26T13:08:51;34.20;27.20
20610;DHT22;10463;52.378;9.688;2023-06-26T13:11:37;34.20;27.20
20610;DHT22;10463;52.378;9.688;2023-06-26T13:14:22;34.20;27.20
20610;DHT22;10463;52.378;9.688;2023-06-26T13:17:06;34.20;27.20
20610;DHT22;10463;52.378;9.688;2023-06-26T13:19:51;34.20;27.20
20610;DHT22;10463;52.378;9.688;2023-06-26T13:22:37;34.20;27.20
20610;DHT22;10463;52.378;9.688;2023-06-26T13:25:22;34.20;27.20
20610;DHT22;10463;52.378;9.688;2023-06-26T13:28:07;34.20;27.20
20610;DHT22;10463;52.378;9.688;2023-06-26T13:30:51;34.20;27.10
20610;DHT22;10463;52.378;9.688;2023-06-26T13:33:36;34.30;27.20
20610;DHT22;10463;52.378;9.688;2023-06-26T13:36:20;34.30;27.10
20610;DHT22;10463;52.378;9.688;2023-06-26T13:39:07;34.30;27.10
20610;DHT22;10463;52.378;9.688;2023-06-26T13:41:52;34.30;27.60
20610;DHT22;10463;52.378;9.688;2023-06-26T13:44:37;34.30;27.10
20610;DHT22;10463;52.378;9.688;2023-06-26T13:47:22;34.30;27.00
20610;DHT22;10463;52.378;9.688;2023-06-26T13:50:09;34.30;27.00
20610;DHT22;10463;52.378;9.688;2023-06-26T13:52:53;34.30;27.00
20610;DHT22;10463;52.378;9.688;2023-06-26T13:55:40;34.30;27.00
20610;DHT22;10463;52.378;9.688;2023-06-26T13:58:25;34.30;27.00
20610;DHT22;10463;52.378;9.688;2023-06-26T14:01:11;34.30;26.90
20610;DHT22;10463;52.378;9.688;2023-06-26T14:03:57;34.30;26.90
20610;DHT22;10463;52.378;9.688;2023-06-26T14:06:42;34.30;26.90
20610;DHT22;10463;52.378;9.688;2023-06-26T14:09:29;34.30;26.90
20610;DHT22;10463;52.378;9.688;2023-06-26T14:12:15;34.40;26.90
20610;DHT22;10463;52.378;9.688;2023-06-26T14:15:00;34.40;26.80
20610;DHT22;10463;52.378;9.688;2023-06-26T14:17:44;34.40;26.80
20610;DHT22;10463;52.378;9.688;2023-06-26T14:20:29;34.40;26.80
20610;DHT22;10463;52.378;9.688;2023-06-26T14:23:17;34.40;26.80
20610;DHT22;10463;52.378;9.688;2023-06-26T14:26:01;34.40;26.80
20610;DHT22;10463;52.378;9.688;2023-06-26T14:28:48;34.40;26.80
20610;DHT22;10463;52.378;9.688;2023-06-26T14:31:32;34.40;26.70
20610;DHT22;10463;52.378;9.688;2023-06-26T14:34:17;34.50;26.80
20610;DHT22;10463;52.378;9.688;2023-06-26T14:37:02;34.50;26.80
20610;DHT22;10463;52.378;9.688;2023-06-26T14:39:47;34.50;26.70
20610;DHT22;10463;52.378;9.688;2023-06-26T14:42:31;34.50;26.70
20610;DHT22;10463;52.378;9.688;2023-06-26T14:45:17;34.50;26.70
20610;DHT22;10463;52.378;9.688;2023-06-26T14:48:02;34.50;26.70
20610;DHT22;10463;52.378;9.688;2023-06-26T14:50:47;34.50;26.60
20610;DHT22;10463;52.378;9.688;2023-06-26T14:53:31;34.50;26.60
20610;DHT22;10463;52.378;9.688;2023-06-26T14:56:16;34.50;26.50
20610;DHT22;10463;52.378;9.688;2023-06-26T14:59:00;34.50;26.50
20610;DHT22;10463;52.378;9.688;2023-06-26T15:01:47;34.50;26.50
20610;DHT22;10463;52.378;9.688;2023-06-26T15:04:32;34.50;26.50
20610;DHT22;10463;52.378;9.688;2023-06-26T15:07:17;34.50;26.40
20610;DHT22;10463;52.378;9.688;2023-06-26T15:10:02;34.50;26.40
20610;DHT22;10463;52.378;9.688;2023-06-26T15:12:47;34.50;26.40
20610;DHT22;10463;52.378;9.688;2023-06-26T15:15:32;34.50;26.40
20610;DHT22;10463;52.378;9.688;2023-06-26T15:18:19;34.50;26.30
20610;DHT22;10463;52.378;9.688;2023-06-26T15:21:03;34.60;26.30
20610;DHT22;10463;52.378;9.688;2023-06-26T15:23:49;34.50;26.30
20610;DHT22;10463;52.378;9.688;2023-06-26T15:26:35;34.60;26.30
20610;DHT22;10463;52.378;9.688;2023-06-26T15:29:21;34.50;26.20
20610;DHT22;10463;52.378;9.688;2023-06-26T15:32:07;34.50;26.20
20610;DHT22;10463;52.378;9.688;2023-06-26T15:34:53;34.50;26.20
20610;DHT22;10463;52.378;9.688;2023-06-26T15:37:38;34.50;26.20
20610;DHT22;10463;52.378;9.688;2023-06-26T15:40:23;34.60;26.30
20610;DHT22;10463;52.378;9.688;2023-06-26T15:43:08;34.50;26.20
20610;DHT22;10463;52.378;9.688;2023-06-26T15:45:53;34.50;26.20
20610;DHT22;10463;52.378;9.688;2023-06-26T15:48:37;34.50;26.20
20610;DHT22;10463;52.378;9.688;2023-06-26T15:51:24;34.50;26.10
20610;DHT22;10463;52.378;9.688;2023-06-26T15:54:08;34.50;26.10
20610;DHT22;10463;52.378;9.688;2023-06-26T15:56:53;34.50;26.10
20610;DHT22;10463;52.378;9.688;2023-06-26T15:59:38;34.50;26.00
20610;DHT22;10463;52.378;9.688;2023-06-26T16:02:22;34.50;26.00
20610;DHT22;10463;52.378;9.688;2023-06-26T16:05:07;34.50;26.00
20610;DHT22;10463;52.378;9.688;2023-06-26T16:07:54;34.50;26.00
20610;DHT22;10463;52.378;9.688;2023-06-26T16:10:38;34.50;26.00
20610;DHT22;10463;52.378;9.688;2023-06-26T16:13:23;34.50;25.90
20610;DHT22;10463;52.378;9.688;2023-06-26T16:16:08;34.50;26.00
20610;DHT22;10463;52.378;9.688;2023-06-26T16:18:53;34.50;25.90
20610;DHT22;10463;52.378;9.688;2023-06-26T16:21:38;34.50;25.90
20610;DHT22;10463;52.378;9.688;2023-06-26T16:24:24;34.50;25.90
20610;DHT22;10463;52.378;9.688;2023-06-26T16:27:08;34.60;26.00
20610;DHT22;10463;52.378;9.688;2023-06-26T16:29:53;34.50;25.90
20610;DHT22;10463;52.378;9.688;2023-06-26T16:32:38;34.50;25.90
20610;DHT22;10463;52.378;9.688;2023-06-26T16:35:23;34.50;25.80
20610;DHT22;10463;52.378;9.688;2023-06-26T16:38:08;34.50;25.80
20610;DHT22;10463;52.378;9.688;2023-06-26T16:40:58;34.50;25.80
20610;DHT22;10463;52.378;9.688;2023-06-26T16:43:43;34.50;25.70
20610;DHT22;10463;52.378;9.688;2023-06-26T16:46:28;34.50;25.80
20610;DHT22;10463;52.378;9.688;2023-06-26T16:49:13;34.50;25.80
20610;DHT22;10463;52.378;9.688;2023-06-26T16:51:58;34.50;25.70
20610;DHT22;10463;52.378;9.688;2023-06-26T16:54:43;34.50;25.70
20610;DHT22;10463;52.378;9.688;2023-06-26T16:57:29;34.50;25.70
20610;DHT22;10463;52.378;9.688;2023-06-26T17:00:15;34.50;25.60
20610;DHT22;10463;52.378;9.688;2023-06-26T17:03:00;34.50;25.50
20610;DHT22;10463;52.378;9.688;2023-06-26T17:05:45;34.50;25.50
20610;DHT22;10463;52.378;9.688;2023-06-26T17:08:29;34.40;25.50
20610;DHT22;10463;52.378;9.688;2023-06-26T17:11:15;34.50;25.50
20610;DHT22;10463;52.378;9.688;2023-06-26T17:14:02;34.40;25.40
20610;DHT22;10463;52.378;9.688;2023-06-26T17:16:46;34.40;25.40
20610;DHT22;10463;52.378;9.688;2023-06-26T17:19:31;34.40;25.40
20610;DHT22;10463;52.378;9.688;2023-06-26T17:22:16;34.40;25.40
20610;DHT22;10463;52.378;9.688;2023-06-26T17:25:01;34.40;25.40
20610;DHT22;10463;52.378;9.688;2023-06-26T17:27:48;34.40;25.30